Time;durP1;ratioP1;P1;durP2;ratioP2;P2;SDS_P1;SDS_P2;PMS_P1;PMS_P2;Temp;Humidity;BMP_temperature;BMP_pressure;BME280_temperature;BME280_humidity;BME280_pressure;Samples;Min_cycle;Max_cycle;Signal;HPM_P1;HPM_P2
2024/01/09 00:01:46;;;;;;;5.03;2.67;;;;;;;;;;4993960;28;20194;-75
2024/01/09 00:04:11;;;;;;;5.97;2.70;;;;;;;;;;5009969;28;20327;-75
2024/01/09 00:06:37;;;;;;;6.70;2.40;;;;;;;;;;5028303;28;20216;-75
2024/01/09 00:09:02;;;;;;;5.60;2.53;;;;;;;;;;5025237;28;20194;-75
2024/01/09 00:11:28;;;;;;;8.73;2.83;;;;;;;;;;5010054;28;20301;-75
2024/01/09 00:13:54;;;;;;;5.13;2.33;;;;;;;;;;5010572;28;20185;-74
2024/01/09 00:16:20;;;;;;;6.27;2.50;;;;;;;;;;5013964;28;20187;-74
2024/01/09 00:18:46;;;;;;;7.50;2.37;;;;;;;;;;5023489;28;20217;-75
2024/01/09 00:21:11;;;;;;;6.57;2.60;;;;;;;;;;5027187;28;20745;-74
2024/01/09 00:23:36;;;;;;;4.97;2.63;;;;;;;;;;5010751;28;20194;-75
2024/01/09 00:26:03;;;;;;;6.33;2.63;;;;;;;;;;5009370;28;20204;-75
2024/01/09 00:28:29;;;;;;;4.13;2.53;;;;;;;;;;5042154;28;20179;-75
2024/01/09 00:30:55;;;;;;;5.70;2.80;;;;;;;;;;5013232;28;20711;-75
2024/01/09 00:33:20;;;;;;;5.43;2.63;;;;;;;;;;5030996;28;20190;-75
2024/01/09 00:35:45;;;;;;;6.53;2.90;;;;;;;;;;5028323;28;20528;-74
2024/01/09 00:38:11;;;;;;;6.23;2.53;;;;;;;;;;5027002;28;20190;-75
2024/01/09 00:40:36;;;;;;;5.87;2.97;;;;;;;;;;5026267;28;20195;-75
2024/01/09 00:43:02;;;;;;;7.07;3.00;;;;;;;;;;5025276;28;20193;-75
2024/01/09 00:45:27;;;;;;;7.80;2.80;;;;;;;;;;5025954;28;20187;-75
2024/01/09 00:47:53;;;;;;;5.90;2.70;;;;;;;;;;5030064;28;20787;-75
2024/01/09 00:50:19;;;;;;;6.43;2.50;;;;;;;;;;5012606;28;20194;-75
2024/01/09 00:52:44;;;;;;;6.73;2.60;;;;;;;;;;5031131;28;20708;-75
2024/01/09 00:55:10;;;;;;;6.37;2.60;;;;;;;;;;5004607;28;20186;-75
2024/01/09 00:57:36;;;;;;;7.77;2.50;;;;;;;;;;5034980;28;20194;-75
2024/01/09 01:00:01;;;;;;;6.80;3.27;;;;;;;;;;5030856;28;20190;-75
2024/01/09 01:02:27;;;;;;;5.40;2.87;;;;;;;;;;5012452;28;20674;-75
2024/01/09 01:04:52;;;;;;;5.10;2.60;;;;;;;;;;5031960;28;20256;-75
2024/01/09 01:07:18;;;;;;;7.40;3.87;;;;;;;;;;5032063;28;20202;-75
2024/01/09 01:09:44;;;;;;;7.73;3.83;;;;;;;;;;5005885;28;20274;-75
2024/01/09 01:12:09;;;;;;;7.73;3.97;;;;;;;;;;5030632;28;20193;-75
2024/01/09 01:14:35;;;;;;;6.50;3.37;;;;;;;;;;5027927;28;20193;-75
2024/01/09 01:17:01;;;;;;;8.17;3.97;;;;;;;;;;5025713;28;20178;-75
2024/01/09 01:19:26;;;;;;;6.33;3.53;;;;;;;;;;5011591;28;20568;-75
2024/01/09 01:21:52;;;;;;;9.03;4.17;;;;;;;;;;5008414;28;20250;-75
2024/01/09 01:24:17;;;;;;;7.60;3.97;;;;;;;;;;5027226;28;20190;-75
2024/01/09 01:26:42;;;;;;;9.57;3.93;;;;;;;;;;5032025;28;20720;-75
2024/01/09 01:29:08;;;;;;;6.50;3.80;;;;;;;;;;5013018;28;20187;-74
2024/01/09 01:31:33;;;;;;;9.03;3.70;;;;;;;;;;5013198;28;20183;-76
2024/01/09 01:33:59;;;;;;;6.57;3.83;;;;;;;;;;5013218;28;20251;-76
2024/01/09 01:36:24;;;;;;;6.60;3.63;;;;;;;;;;5034854;28;20348;-77
2024/01/09 01:38:49;;;;;;;8.57;3.77;;;;;;;;;;5009980;28;20202;-76
2024/01/09 01:41:15;;;;;;;7.13;4.10;;;;;;;;;;5029740;28;20186;-76
2024/01/09 01:43:40;;;;;;;6.67;3.20;;;;;;;;;;5027993;28;20594;-76
2024/01/09 01:46:06;;;;;;;8.13;3.73;;;;;;;;;;5025980;28;20175;-76
2024/01/09 01:48:33;;;;;;;6.83;3.90;;;;;;;;;;5031514;28;20227;-76
2024/01/09 01:50:59;;;;;;;7.73;4.07;;;;;;;;;;5030161;28;20190;-75
2024/01/09 01:53:27;;;;;;;7.03;3.70;;;;;;;;;;5037275;28;20217;-75
2024/01/09 01:55:52;;;;;;;7.90;4.20;;;;;;;;;;5014231;28;20201;-76
2024/01/09 01:58:19;;;;;;;7.47;4.00;;;;;;;;;;5024175;28;20372;-76
2024/01/09 02:00:44;;;;;;;10.67;3.73;;;;;;;;;;5032960;28;20557;-75
2024/01/09 02:03:12;;;;;;;8.37;3.77;;;;;;;;;;5041803;28;20268;-76
2024/01/09 02:05:38;;;;;;;7.90;3.80;;;;;;;;;;5011869;28;20183;-76
2024/01/09 02:08:05;;;;;;;6.30;3.63;;;;;;;;;;5013090;28;20202;-75
2024/01/09 02:10:30;;;;;;;6.77;3.80;;;;;;;;;;5009382;28;20270;-76
2024/01/09 02:12:56;;;;;;;6.13;3.20;;;;;;;;;;4995062;28;20277;-76
2024/01/09 02:15:21;;;;;;;9.37;3.63;;;;;;;;;;5030211;28;20631;-76
2024/01/09 02:17:48;;;;;;;7.63;4.30;;;;;;;;;;5024767;28;20190;-76
2024/01/09 02:20:13;;;;;;;7.47;3.77;;;;;;;;;;5030660;28;20190;-76
2024/01/09 02:22:39;;;;;;;8.43;3.73;;;;;;;;;;4996205;28;20233;-76
2024/01/09 02:25:04;;;;;;;6.50;3.60;;;;;;;;;;4993582;28;20266;-76
2024/01/09 02:27:34;;;;;;;6.33;3.40;;;;;;;;;;4980254;28;20551;-76
2024/01/09 02:30:00;;;;;;;9.70;4.03;;;;;;;;;;4988537;28;20195;-75
2024/01/09 02:32:26;;;;;;;6.83;3.90;;;;;;;;;;5004406;28;20623;-75
2024/01/09 02:34:52;;;;;;;7.10;3.80;;;;;;;;;;4985367;28;20188;-77
2024/01/09 02:37:17;;;;;;;6.00;3.43;;;;;;;;;;4992228;28;20638;-77
2024/01/09 02:39:43;;;;;;;8.03;3.47;;;;;;;;;;4991681;28;20195;-77
2024/01/09 02:42:08;;;;;;;6.57;3.60;;;;;;;;;;4972301;28;20709;-77
2024/01/09 02:44:34;;;;;;;7.00;3.80;;;;;;;;;;5006129;28;20215;-77
2024/01/09 02:46:59;;;;;;;7.47;3.97;;;;;;;;;;4972692;28;20223;-77
2024/01/09 02:49:25;;;;;;;5.70;3.47;;;;;;;;;;4987932;28;20184;-77
2024/01/09 02:51:50;;;;;;;8.40;3.33;;;;;;;;;;5004003;28;20187;-77
2024/01/09 02:54:16;;;;;;;6.63;3.30;;;;;;;;;;5001282;28;20242;-77
2024/01/09 02:56:41;;;;;;;10.73;3.67;;;;;;;;;;4991325;28;20526;-77
2024/01/09 02:59:06;;;;;;;6.33;3.63;;;;;;;;;;4988554;28;20188;-76
2024/01/09 03:01:32;;;;;;;8.40;3.90;;;;;;;;;;4995137;28;20183;-77
2024/01/09 03:03:57;;;;;;;6.03;3.47;;;;;;;;;;4992257;28;20579;-76
2024/01/09 03:06:23;;;;;;;7.10;3.70;;;;;;;;;;4980774;28;20584;-76
2024/01/09 03:08:48;;;;;;;7.17;3.87;;;;;;;;;;4994560;28;20202;-75
2024/01/09 03:11:14;;;;;;;6.97;3.47;;;;;;;;;;4994463;28;20187;-75
2024/01/09 03:13:40;;;;;;;6.87;3.90;;;;;;;;;;4989226;28;20195;-74
2024/01/09 03:16:10;;;;;;;8.43;3.67;;;;;;;;;;4979377;28;20184;-76
2024/01/09 03:18:36;;;;;;;7.80;3.37;;;;;;;;;;4994467;28;20208;-76
2024/01/09 03:21:02;;;;;;;7.17;3.63;;;;;;;;;;4996103;28;20540;-76
2024/01/09 03:23:27;;;;;;;7.00;3.70;;;;;;;;;;5021330;28;20205;-76
2024/01/09 03:25:52;;;;;;;5.77;3.47;;;;;;;;;;5024257;28;20205;-76
2024/01/09 03:28:18;;;;;;;6.13;3.80;;;;;;;;;;5011096;28;20233;-76
2024/01/09 03:30:43;;;;;;;6.80;4.03;;;;;;;;;;5010055;28;20185;-76
2024/01/09 03:33:09;;;;;;;7.30;3.63;;;;;;;;;;5011965;28;20190;-77
2024/01/09 03:35:34;;;;;;;8.33;3.67;;;;;;;;;;5008202;28;20190;-75
2024/01/09 03:37:59;;;;;;;6.20;3.33;;;;;;;;;;4993970;28;20186;-75
2024/01/09 03:40:25;;;;;;;7.13;3.60;;;;;;;;;;5038530;28;20186;-75
2024/01/09 03:42:50;;;;;;;6.10;3.27;;;;;;;;;;5021813;28;20730;-76
2024/01/09 03:45:16;;;;;;;6.47;3.50;;;;;;;;;;4998910;28;20317;-76
2024/01/09 03:47:41;;;;;;;9.10;4.40;;;;;;;;;;5010465;28;20245;-75
2024/01/09 03:50:07;;;;;;;6.67;3.50;;;;;;;;;;5006736;28;20269;-77
2024/01/09 03:52:32;;;;;;;7.97;3.83;;;;;;;;;;5010807;28;20267;-75
2024/01/09 03:54:58;;;;;;;6.33;3.53;;;;;;;;;;5029222;28;20189;-75
2024/01/09 03:57:23;;;;;;;8.97;3.80;;;;;;;;;;5033871;28;20232;-76
2024/01/09 03:59:48;;;;;;;5.33;3.40;;;;;;;;;;5010327;28;20193;-76
2024/01/09 04:02:14;;;;;;;7.60;4.03;;;;;;;;;;5031398;28;20178;-76
2024/01/09 04:04:39;;;;;;;7.93;4.50;;;;;;;;;;5046780;28;20210;-76
2024/01/09 04:07:05;;;;;;;6.83;3.43;;;;;;;;;;4990218;28;20210;-76
2024/01/09 04:09:30;;;;;;;8.93;3.90;;;;;;;;;;4998370;28;20177;-74
2024/01/09 04:11:55;;;;;;;7.37;3.50;;;;;;;;;;4998240;28;20692;-76
2024/01/09 04:14:21;;;;;;;7.03;3.83;;;;;;;;;;5033584;28;20186;-74
2024/01/09 04:16:47;;;;;;;6.77;3.93;;;;;;;;;;5026918;28;20193;-77
2024/01/09 04:19:12;;;;;;;7.80;3.50;;;;;;;;;;5011607;28;20214;-76
2024/01/09 04:21:38;;;;;;;6.97;3.37;;;;;;;;;;5024605;28;20679;-74
2024/01/09 04:24:05;;;;;;;6.03;3.60;;;;;;;;;;5031898;28;20232;-76
2024/01/09 04:26:30;;;;;;;6.23;3.37;;;;;;;;;;5023281;28;20216;-75
2024/01/09 04:28:56;;;;;;;6.67;3.90;;;;;;;;;;4999182;28;20190;-76
2024/01/09 04:31:24;;;;;;;7.40;4.10;;;;;;;;;;5012596;28;20217;-76
2024/01/09 04:33:50;;;;;;;6.50;3.57;;;;;;;;;;5015722;28;20217;-76
2024/01/09 04:36:19;;;;;;;7.20;3.77;;;;;;;;;;5031995;28;20595;-76
2024/01/09 04:38:48;;;;;;;7.90;4.23;;;;;;;;;;5031800;28;20209;-76
2024/01/09 04:41:17;;;;;;;8.73;4.00;;;;;;;;;;5015167;28;20437;-76
2024/01/09 04:43:45;;;;;;;6.43;3.63;;;;;;;;;;5031836;28;20588;-76
2024/01/09 04:46:10;;;;;;;6.60;3.63;;;;;;;;;;5032299;28;20320;-76
2024/01/09 04:48:36;;;;;;;7.67;4.00;;;;;;;;;;5031281;28;20261;-75
2024/01/09 04:51:01;;;;;;;8.43;3.67;;;;;;;;;;5028908;28;20197;-75
2024/01/09 04:53:27;;;;;;;9.50;4.00;;;;;;;;;;5031843;28;20541;-76
2024/01/09 04:55:52;;;;;;;8.43;3.93;;;;;;;;;;5014013;28;20224;-75
2024/01/09 04:58:17;;;;;;;9.03;4.20;;;;;;;;;;5030099;28;20257;-75
2024/01/09 05:00:43;;;;;;;7.77;3.93;;;;;;;;;;5011517;28;20549;-75
2024/01/09 05:03:08;;;;;;;7.13;3.70;;;;;;;;;;5011792;28;20696;-74
2024/01/09 05:05:34;;;;;;;8.23;3.70;;;;;;;;;;5031412;28;20256;-75
2024/01/09 05:07:59;;;;;;;8.47;4.20;;;;;;;;;;5031816;28;20241;-75
2024/01/09 05:10:25;;;;;;;7.93;3.73;;;;;;;;;;5031167;28;20264;-75
2024/01/09 05:12:50;;;;;;;7.23;4.17;;;;;;;;;;5035571;28;20186;-76
2024/01/09 05:15:16;;;;;;;7.33;3.67;;;;;;;;;;5031319;28;20194;-76
2024/01/09 05:17:41;;;;;;;6.23;3.50;;;;;;;;;;5036179;28;20586;-76
2024/01/09 05:20:07;;;;;;;7.13;3.97;;;;;;;;;;5013267;28;20305;-76
2024/01/09 05:22:35;;;;;;;9.03;4.60;;;;;;;;;;5023947;28;20250;-76
2024/01/09 05:25:01;;;;;;;9.07;4.03;;;;;;;;;;4998146;28;20685;-77
2024/01/09 05:27:27;;;;;;;6.90;4.00;;;;;;;;;;5030514;28;20212;-77
2024/01/09 05:29:52;;;;;;;7.83;3.50;;;;;;;;;;5028133;28;20182;-76
2024/01/09 05:32:18;;;;;;;7.67;4.27;;;;;;;;;;5014206;28;20240;-77
2024/01/09 05:34:43;;;;;;;7.17;3.73;;;;;;;;;;5027169;28;20194;-77
2024/01/09 05:37:08;;;;;;;8.17;4.00;;;;;;;;;;5031589;28;20178;-77
2024/01/09 05:39:34;;;;;;;8.23;3.80;;;;;;;;;;5012750;28;20178;-77
2024/01/09 05:41:59;;;;;;;7.87;3.80;;;;;;;;;;5012734;28;20225;-77
2024/01/09 05:44:25;;;;;;;9.03;3.87;;;;;;;;;;5013294;28;20201;-77
2024/01/09 05:46:51;;;;;;;8.87;3.67;;;;;;;;;;5027568;28;20210;-77
2024/01/09 05:49:16;;;;;;;7.63;3.90;;;;;;;;;;5013758;28;20688;-77
2024/01/09 05:51:42;;;;;;;7.07;3.57;;;;;;;;;;5018102;28;20630;-77
2024/01/09 05:54:07;;;;;;;8.50;3.93;;;;;;;;;;5027893;28;20191;-77
2024/01/09 05:56:32;;;;;;;8.00;3.93;;;;;;;;;;5012571;28;20182;-76
2024/01/09 05:58:58;;;;;;;6.83;3.77;;;;;;;;;;5030635;28;20270;-76
2024/01/09 06:01:23;;;;;;;6.83;3.97;;;;;;;;;;5032610;28;20196;-76
2024/01/09 06:03:49;;;;;;;6.27;3.80;;;;;;;;;;5026484;28;20197;-77
2024/01/09 06:06:14;;;;;;;8.73;4.50;;;;;;;;;;5050690;28;20644;-77
2024/01/09 06:08:40;;;;;;;6.90;3.93;;;;;;;;;;5030634;28;20253;-77
2024/01/09 06:11:05;;;;;;;6.73;3.93;;;;;;;;;;5029576;28;20301;-77
2024/01/09 06:13:31;;;;;;;6.27;3.93;;;;;;;;;;5041207;28;20263;-76
2024/01/09 06:15:56;;;;;;;10.57;4.27;;;;;;;;;;5012388;28;20212;-77
2024/01/09 06:18:21;;;;;;;8.37;4.30;;;;;;;;;;5008618;28;20206;-75
2024/01/09 06:20:47;;;;;;;7.00;3.80;;;;;;;;;;5001669;28;20237;-76
2024/01/09 06:23:12;;;;;;;8.90;4.20;;;;;;;;;;5011846;28;20193;-76
2024/01/09 06:25:38;;;;;;;7.93;3.70;;;;;;;;;;5002002;28;20260;-76
2024/01/09 06:28:04;;;;;;;8.30;3.87;;;;;;;;;;5021508;28;20255;-76
2024/01/09 06:30:30;;;;;;;8.50;4.17;;;;;;;;;;5007249;28;20187;-76
2024/01/09 06:32:55;;;;;;;8.03;3.60;;;;;;;;;;5005315;28;20669;-77
2024/01/09 06:35:20;;;;;;;9.03;4.10;;;;;;;;;;5003660;28;20275;-76
2024/01/09 06:37:46;;;;;;;6.63;3.53;;;;;;;;;;5017313;28;20206;-76
2024/01/09 06:40:11;;;;;;;6.33;3.60;;;;;;;;;;5008828;28;20202;-74
2024/01/09 06:42:37;;;;;;;8.20;4.30;;;;;;;;;;5006175;28;20253;-76
2024/01/09 06:45:02;;;;;;;7.47;3.90;;;;;;;;;;5005789;28;20722;-76
2024/01/09 06:47:28;;;;;;;8.07;3.97;;;;;;;;;;5009283;28;20592;-76
2024/01/09 06:49:53;;;;;;;6.90;3.73;;;;;;;;;;5005348;28;20279;-76
2024/01/09 06:52:19;;;;;;;7.70;4.00;;;;;;;;;;5006564;28;20261;-76
2024/01/09 06:54:44;;;;;;;6.90;3.83;;;;;;;;;;5006866;28;20197;-76
2024/01/09 06:57:10;;;;;;;6.97;3.57;;;;;;;;;;5005624;28;20566;-76
2024/01/09 06:59:35;;;;;;;9.00;3.87;;;;;;;;;;4997811;28;20621;-76
2024/01/09 07:02:01;;;;;;;8.77;4.13;;;;;;;;;;5009064;28;20187;-76
2024/01/09 07:04:26;;;;;;;7.53;3.60;;;;;;;;;;4996935;28;20584;-76
2024/01/09 07:06:52;;;;;;;6.23;3.73;;;;;;;;;;5024073;28;20687;-76
2024/01/09 07:09:18;;;;;;;8.47;3.70;;;;;;;;;;5014804;28;20185;-77
2024/01/09 07:11:43;;;;;;;8.67;3.43;;;;;;;;;;5010516;28;20603;-76
2024/01/09 07:14:10;;;;;;;6.83;3.60;;;;;;;;;;5004284;28;20197;-76
2024/01/09 07:16:35;;;;;;;8.60;3.57;;;;;;;;;;5002793;28;20183;-76
2024/01/09 07:19:02;;;;;;;6.87;3.80;;;;;;;;;;5003398;28;20206;-76
2024/01/09 07:21:27;;;;;;;7.27;3.50;;;;;;;;;;5017943;28;20302;-75
2024/01/09 07:23:53;;;;;;;6.40;3.40;;;;;;;;;;5008034;28;20281;-76
2024/01/09 07:26:18;;;;;;;5.73;3.37;;;;;;;;;;5005231;28;20238;-76
2024/01/09 07:28:43;;;;;;;8.20;3.60;;;;;;;;;;5005594;28;20452;-76
2024/01/09 07:31:09;;;;;;;5.90;2.80;;;;;;;;;;5009867;28;20186;-76
2024/01/09 07:33:35;;;;;;;7.33;3.70;;;;;;;;;;5007715;28;20252;-76
2024/01/09 07:36:01;;;;;;;6.67;3.23;;;;;;;;;;5008164;28;20198;-76
2024/01/09 07:38:26;;;;;;;6.17;3.23;;;;;;;;;;5010088;28;20334;-76
2024/01/09 07:40:52;;;;;;;7.17;3.23;;;;;;;;;;4992041;28;20272;-76
2024/01/09 07:43:17;;;;;;;7.50;3.80;;;;;;;;;;5012517;28;20735;-76
2024/01/09 07:45:42;;;;;;;5.90;3.30;;;;;;;;;;5012421;28;20543;-76
2024/01/09 07:48:08;;;;;;;5.93;2.90;;;;;;;;;;5005107;28;20218;-76
2024/01/09 07:50:33;;;;;;;6.40;3.00;;;;;;;;;;5008139;28;20512;-76
2024/01/09 07:52:59;;;;;;;8.40;3.27;;;;;;;;;;5005925;28;20254;-76
2024/01/09 07:55:25;;;;;;;8.00;3.77;;;;;;;;;;5000009;28;20245;-76
2024/01/09 07:57:50;;;;;;;6.27;3.20;;;;;;;;;;5018983;28;20827;-76
2024/01/09 08:00:16;;;;;;;6.97;3.30;;;;;;;;;;5000356;28;20187;-75
2024/01/09 08:02:42;;;;;;;8.60;3.60;;;;;;;;;;5007703;28;20195;-76
2024/01/09 08:05:07;;;;;;;6.93;3.20;;;;;;;;;;5009280;28;20282;-75
2024/01/09 08:07:33;;;;;;;8.40;2.73;;;;;;;;;;5008964;28;20518;-76
2024/01/09 08:09:58;;;;;;;6.20;2.87;;;;;;;;;;5008892;28;20661;-76
2024/01/09 08:12:25;;;;;;;6.10;2.87;;;;;;;;;;4992815;28;20280;-76
2024/01/09 08:14:50;;;;;;;5.07;2.80;;;;;;;;;;5009447;28;20222;-76
2024/01/09 08:17:16;;;;;;;6.03;2.93;;;;;;;;;;5006439;28;20211;-77
2024/01/09 08:19:42;;;;;;;5.07;2.40;;;;;;;;;;5023572;28;20221;-77
2024/01/09 08:22:08;;;;;;;7.83;3.20;;;;;;;;;;5021658;28;20233;-76
2024/01/09 08:24:33;;;;;;;13.23;2.90;;;;;;;;;;5020976;28;20234;-76
2024/01/09 08:26:59;;;;;;;5.53;2.73;;;;;;;;;;5013627;28;20227;-76
2024/01/09 08:29:27;;;;;;;4.97;2.63;;;;;;;;;;5021400;28;20272;-75
2024/01/09 08:31:53;;;;;;;6.73;2.90;;;;;;;;;;5011299;28;20650;-76
2024/01/09 08:34:19;;;;;;;5.70;2.43;;;;;;;;;;5029787;28;20471;-75
2024/01/09 08:36:45;;;;;;;6.13;3.43;;;;;;;;;;5009968;28;20190;-75
2024/01/09 08:39:12;;;;;;;6.77;2.73;;;;;;;;;;5029070;28;20273;-75
2024/01/09 08:41:37;;;;;;;6.27;2.87;;;;;;;;;;5009851;28;20534;-75
2024/01/09 08:44:03;;;;;;;5.33;2.80;;;;;;;;;;5007260;28;20282;-76
2024/01/09 08:46:28;;;;;;;5.13;2.43;;;;;;;;;;5019349;28;20215;-75
2024/01/09 08:48:54;;;;;;;5.40;2.53;;;;;;;;;;4995136;28;20190;-76
2024/01/09 08:51:20;;;;;;;7.23;2.83;;;;;;;;;;5027227;28;20195;-76
2024/01/09 08:53:45;;;;;;;6.90;2.90;;;;;;;;;;5013949;28;20205;-76
2024/01/09 08:56:11;;;;;;;5.37;2.80;;;;;;;;;;5031531;28;20224;-75
2024/01/09 08:58:36;;;;;;;5.57;2.83;;;;;;;;;;5023912;28;20678;-76
2024/01/09 09:01:03;;;;;;;5.37;2.80;;;;;;;;;;5030754;28;20190;-76
2024/01/09 09:03:28;;;;;;;6.70;2.50;;;;;;;;;;5031367;28;20806;-75
2024/01/09 09:05:54;;;;;;;4.47;2.47;;;;;;;;;;5011332;28;20262;-75
2024/01/09 09:08:21;;;;;;;4.43;2.27;;;;;;;;;;5028531;28;20203;-76
2024/01/09 09:10:46;;;;;;;4.53;1.90;;;;;;;;;;5036672;28;20645;-75
2024/01/09 09:13:12;;;;;;;4.33;1.93;;;;;;;;;;5015572;28;20197;-76
2024/01/09 09:15:37;;;;;;;7.57;2.43;;;;;;;;;;5019128;28;20229;-75
2024/01/09 09:18:03;;;;;;;7.33;2.30;;;;;;;;;;4988994;28;20209;-76
2024/01/09 09:20:28;;;;;;;5.37;2.10;;;;;;;;;;5032265;28;20192;-76
2024/01/09 09:22:54;;;;;;;7.00;2.20;;;;;;;;;;5018197;28;20198;-76
2024/01/09 09:25:19;;;;;;;5.97;2.00;;;;;;;;;;5032441;28;20193;-76
2024/01/09 09:27:45;;;;;;;4.53;1.67;;;;;;;;;;5017859;28;20561;-76
2024/01/09 09:30:12;;;;;;;4.77;2.07;;;;;;;;;;5012241;28;20186;-76
2024/01/09 09:32:38;;;;;;;4.13;1.70;;;;;;;;;;5006451;28;20562;-76
2024/01/09 09:35:03;;;;;;;3.60;1.53;;;;;;;;;;5000425;28;20197;-77
2024/01/09 09:37:29;;;;;;;3.50;1.60;;;;;;;;;;5042203;28;20193;-77
2024/01/09 09:39:54;;;;;;;4.70;1.83;;;;;;;;;;5013994;28;20560;-75
2024/01/09 09:42:20;;;;;;;5.00;2.03;;;;;;;;;;5024333;28;20195;-77
2024/01/09 09:44:52;;;;;;;3.90;1.67;;;;;;;;;;5009764;28;20198;-77
2024/01/09 09:47:19;;;;;;;3.63;1.90;;;;;;;;;;5029152;28;20210;-77
2024/01/09 09:49:46;;;;;;;4.40;2.10;;;;;;;;;;5020630;28;20245;-76
2024/01/09 09:52:12;;;;;;;4.03;1.90;;;;;;;;;;5025744;28;20651;-76
2024/01/09 09:54:38;;;;;;;7.67;2.07;;;;;;;;;;5006450;28;20190;-75
2024/01/09 09:57:04;;;;;;;6.00;2.00;;;;;;;;;;5024209;28;20226;-77
2024/01/09 09:59:31;;;;;;;4.00;1.67;;;;;;;;;;5009659;28;20190;-76
2024/01/09 10:01:57;;;;;;;3.00;1.60;;;;;;;;;;5014828;28;20190;-76
2024/01/09 10:04:34;;;;;;;4.27;1.90;;;;;;;;;;5026967;28;20232;-76
2024/01/09 10:07:03;;;;;;;4.53;2.17;;;;;;;;;;5015799;28;20335;-76
2024/01/09 10:09:35;;;;;;;3.47;1.77;;;;;;;;;;5014997;28;20181;-76
2024/01/09 10:12:00;;;;;;;4.13;1.73;;;;;;;;;;5019449;28;20772;-76
2024/01/09 10:14:26;;;;;;;4.10;1.77;;;;;;;;;;5024313;28;20251;-76
2024/01/09 10:16:55;;;;;;;2.30;1.43;;;;;;;;;;5019667;28;20190;-76
2024/01/09 10:19:24;;;;;;;3.53;1.83;;;;;;;;;;5016377;28;20621;-77
2024/01/09 10:21:50;;;;;;;3.87;1.37;;;;;;;;;;5013187;28;20605;-76
2024/01/09 10:24:17;;;;;;;3.23;1.60;;;;;;;;;;5009244;28;20182;-76
2024/01/09 10:26:43;;;;;;;3.30;1.57;;;;;;;;;;5009322;28;20297;-77
2024/01/09 10:29:12;;;;;;;3.70;1.63;;;;;;;;;;5023054;28;20326;-77
2024/01/09 10:31:40;;;;;;;4.80;1.80;;;;;;;;;;4990356;28;20194;-75
2024/01/09 10:34:06;;;;;;;3.07;1.63;;;;;;;;;;5001767;28;20191;-75
2024/01/09 10:36:32;;;;;;;4.43;1.60;;;;;;;;;;5006600;28;20529;-76
2024/01/09 10:39:04;;;;;;;3.77;1.40;;;;;;;;;;5019209;28;20222;-76
2024/01/09 10:41:30;;;;;;;4.00;1.60;;;;;;;;;;5001272;28;20191;-76
2024/01/09 10:43:55;;;;;;;5.23;1.30;;;;;;;;;;5021776;28;20195;-75
2024/01/09 10:46:29;;;;;;;6.20;1.50;;;;;;;;;;5025956;28;20199;-75
2024/01/09 10:48:56;;;;;;;4.00;1.10;;;;;;;;;;5010657;28;20245;-75
2024/01/09 10:51:23;;;;;;;7.27;1.90;;;;;;;;;;5020712;28;20186;-75
2024/01/09 10:53:50;;;;;;;4.53;1.70;;;;;;;;;;5024341;28;20191;-75
2024/01/09 10:56:20;;;;;;;4.63;1.60;;;;;;;;;;5005788;28;20195;-76
2024/01/09 10:58:47;;;;;;;4.07;2.00;;;;;;;;;;4995896;28;20191;-76
2024/01/09 11:01:16;;;;;;;3.80;1.80;;;;;;;;;;5002055;28;20186;-76
2024/01/09 11:03:42;;;;;;;4.30;1.90;;;;;;;;;;4998555;28;20191;-76
2024/01/09 11:06:08;;;;;;;3.90;1.80;;;;;;;;;;5002355;28;20179;-76
2024/01/09 11:08:37;;;;;;;3.17;1.60;;;;;;;;;;4989661;28;20211;-76
2024/01/09 11:11:06;;;;;;;4.90;2.00;;;;;;;;;;5006157;28;20278;-76
2024/01/09 11:13:35;;;;;;;3.00;1.70;;;;;;;;;;5001298;28;20223;-75
2024/01/09 11:16:02;;;;;;;5.00;1.93;;;;;;;;;;5004145;28;20663;-76
2024/01/09 11:18:29;;;;;;;5.07;1.90;;;;;;;;;;4990328;28;20286;-76
2024/01/09 11:21:02;;;;;;;3.57;1.80;;;;;;;;;;5022338;28;20715;-76
2024/01/09 11:23:42;;;;;;;3.50;1.87;;;;;;;;;;5016934;28;20221;-75
2024/01/09 11:26:08;;;;;;;4.03;1.60;;;;;;;;;;5012442;28;20185;-76
2024/01/09 11:28:37;;;;;;;3.90;1.80;;;;;;;;;;5036864;28;20233;-76
2024/01/09 11:31:07;;;;;;;3.53;1.73;;;;;;;;;;5001395;28;20218;-75
2024/01/09 11:33:33;;;;;;;7.07;2.13;;;;;;;;;;5021943;28;20213;-76
2024/01/09 11:36:09;;;;;;;3.50;1.70;;;;;;;;;;5003988;28;20210;-76
2024/01/09 11:38:34;;;;;;;4.97;1.80;;;;;;;;;;5012467;28;20185;-76
2024/01/09 11:41:04;;;;;;;2.83;1.60;;;;;;;;;;5011426;28;20272;-76
2024/01/09 11:43:50;;;;;;;3.80;1.80;;;;;;;;;;5013087;28;20851;-76
2024/01/09 11:46:15;;;;;;;2.23;1.40;;;;;;;;;;5019861;28;20178;-75
2024/01/09 11:48:41;;;;;;;3.77;1.63;;;;;;;;;;5030497;28;20192;-76
2024/01/09 11:51:06;;;;;;;3.67;1.90;;;;;;;;;;5038780;28;20264;-76
2024/01/09 11:53:32;;;;;;;4.87;2.00;;;;;;;;;;5028698;28;20210;-76
2024/01/09 11:55:58;;;;;;;4.13;1.93;;;;;;;;;;5011990;28;20186;-76
2024/01/09 11:58:24;;;;;;;6.10;2.20;;;;;;;;;;5011247;28;20247;-76
2024/01/09 12:00:50;;;;;;;5.33;2.10;;;;;;;;;;5029237;28;20264;-76
2024/01/09 12:03:16;;;;;;;3.97;2.10;;;;;;;;;;5027100;28;20186;-75
2024/01/09 12:05:41;;;;;;;6.67;2.13;;;;;;;;;;5015614;28;20190;-75
2024/01/09 12:08:07;;;;;;;3.53;1.70;;;;;;;;;;5011287;28;20209;-76
2024/01/09 12:10:33;;;;;;;3.13;1.63;;;;;;;;;;5029202;28;20673;-76
2024/01/09 12:13:03;;;;;;;3.23;1.87;;;;;;;;;;5028319;28;20210;-76
2024/01/09 12:15:29;;;;;;;3.30;1.80;;;;;;;;;;5029073;28;20220;-76
2024/01/09 12:17:57;;;;;;;6.00;2.17;;;;;;;;;;5009316;28;20217;-76
2024/01/09 12:20:22;;;;;;;4.03;2.23;;;;;;;;;;5027535;28;20248;-76
2024/01/09 12:22:48;;;;;;;3.67;1.70;;;;;;;;;;5030079;28;20582;-76
2024/01/09 12:25:14;;;;;;;4.70;1.87;;;;;;;;;;5014912;28;20715;-76
2024/01/09 12:27:39;;;;;;;5.20;2.00;;;;;;;;;;5028554;28;20214;-77
2024/01/09 12:30:07;;;;;;;3.43;1.60;;;;;;;;;;5030234;28;20243;-77
2024/01/09 12:32:32;;;;;;;4.40;2.07;;;;;;;;;;5015493;28;20199;-77
2024/01/09 12:34:58;;;;;;;3.17;1.70;;;;;;;;;;5038393;28;20182;-77
2024/01/09 12:37:24;;;;;;;4.53;1.83;;;;;;;;;;5014611;28;20267;-76
2024/01/09 12:40:09;;;;;;;2.73;1.60;;;;;;;;;;5036987;28;20209;-76
2024/01/09 12:42:34;;;;;;;3.90;1.80;;;;;;;;;;5039364;28;20189;-76
2024/01/09 12:45:00;;;;;;;3.87;1.63;;;;;;;;;;4997829;28;20197;-76
2024/01/09 12:47:26;;;;;;;3.77;1.70;;;;;;;;;;5011395;28;20264;-76
2024/01/09 12:49:52;;;;;;;3.70;1.63;;;;;;;;;;5032590;28;20177;-76
2024/01/09 12:52:21;;;;;;;3.53;1.80;;;;;;;;;;5023042;28;20201;-76
2024/01/09 12:54:49;;;;;;;6.23;1.97;;;;;;;;;;5032448;28;20182;-77
2024/01/09 12:57:15;;;;;;;4.17;1.67;;;;;;;;;;5021720;28;20751;-77
2024/01/09 12:59:43;;;;;;;6.07;1.80;;;;;;;;;;5033141;28;20224;-77
2024/01/09 13:02:09;;;;;;;3.63;1.90;;;;;;;;;;5013956;28;20671;-77
2024/01/09 13:04:35;;;;;;;3.67;1.50;;;;;;;;;;5031984;28;20190;-77
2024/01/09 13:07:02;;;;;;;6.20;2.10;;;;;;;;;;5043530;28;20215;-77
2024/01/09 13:09:28;;;;;;;4.27;1.83;;;;;;;;;;5015714;28;20182;-77
2024/01/09 13:11:54;;;;;;;4.67;2.00;;;;;;;;;;5032734;28;20248;-77
2024/01/09 13:14:20;;;;;;;4.73;1.83;;;;;;;;;;5031530;28;20561;-78
2024/01/09 13:16:46;;;;;;;3.33;1.50;;;;;;;;;;5027268;28;20467;-78
2024/01/09 13:19:13;;;;;;;4.00;1.80;;;;;;;;;;4999063;28;20213;-78
2024/01/09 13:21:39;;;;;;;4.77;2.00;;;;;;;;;;5011539;28;20227;-77
2024/01/09 13:24:05;;;;;;;2.93;1.83;;;;;;;;;;5027982;28;20182;-78
2024/01/09 13:26:31;;;;;;;3.70;2.03;;;;;;;;;;4996418;28;20179;-78
2024/01/09 13:28:56;;;;;;;3.93;1.80;;;;;;;;;;5004961;28;20258;-78
2024/01/09 13:31:22;;;;;;;4.13;1.70;;;;;;;;;;5023438;28;20195;-78
2024/01/09 13:33:47;;;;;;;5.47;1.70;;;;;;;;;;5012633;28;20277;-79
2024/01/09 13:36:13;;;;;;;3.10;1.57;;;;;;;;;;4994844;28;20187;-78
2024/01/09 13:38:38;;;;;;;3.73;1.70;;;;;;;;;;5012924;28;20175;-79
2024/01/09 13:41:04;;;;;;;3.27;1.60;;;;;;;;;;5009792;28;20243;-78
2024/01/09 13:43:30;;;;;;;4.13;1.70;;;;;;;;;;5018317;28;20213;-79
2024/01/09 13:45:58;;;;;;;3.07;1.70;;;;;;;;;;4996255;28;20187;-79
2024/01/09 13:48:24;;;;;;;2.60;1.30;;;;;;;;;;4996459;28;20211;-79
2024/01/09 13:50:50;;;;;;;4.87;1.83;;;;;;;;;;5010375;28;20258;-79
2024/01/09 13:53:15;;;;;;;3.60;1.40;;;;;;;;;;4987221;28;20662;-79
2024/01/09 13:55:46;;;;;;;2.93;1.73;;;;;;;;;;5036930;28;20190;-79
2024/01/09 13:58:14;;;;;;;4.73;1.37;;;;;;;;;;5007462;28;20171;-79
2024/01/09 14:00:40;;;;;;;3.70;1.43;;;;;;;;;;5004508;28;20198;-79
2024/01/09 14:03:05;;;;;;;7.17;1.53;;;;;;;;;;5025854;28;20191;-79
2024/01/09 14:05:31;;;;;;;3.07;1.53;;;;;;;;;;5010853;28;20215;-78
2024/01/09 14:07:58;;;;;;;3.30;1.70;;;;;;;;;;4990944;28;20738;-78
2024/01/09 14:10:23;;;;;;;2.80;1.13;;;;;;;;;;5012635;28;20217;-79
2024/01/09 14:12:49;;;;;;;3.63;1.50;;;;;;;;;;5010563;28;20274;-78
2024/01/09 14:15:16;;;;;;;3.70;1.50;;;;;;;;;;5012482;28;20246;-78
2024/01/09 14:17:42;;;;;;;3.73;1.70;;;;;;;;;;5009977;28;20180;-78
2024/01/09 14:20:09;;;;;;;3.53;1.60;;;;;;;;;;5016984;28;20190;-78
2024/01/09 14:22:35;;;;;;;3.43;1.67;;;;;;;;;;5014441;28;20222;-78
2024/01/09 14:25:01;;;;;;;4.17;1.60;;;;;;;;;;5012663;28;20190;-78
2024/01/09 14:27:26;;;;;;;5.00;1.80;;;;;;;;;;5011332;28;20321;-78
2024/01/09 14:29:52;;;;;;;3.93;2.00;;;;;;;;;;5018443;28;20656;-79
2024/01/09 14:32:18;;;;;;;3.03;1.57;;;;;;;;;;5027003;28;20187;-79
2024/01/09 14:34:44;;;;;;;3.33;1.70;;;;;;;;;;5017722;28;20193;-79
2024/01/09 14:37:10;;;;;;;3.60;1.90;;;;;;;;;;5011200;28;20656;-79